KINJ

Details ICAO KINJ (INJ)
Name HILLSBORO MUNI
Region United States
Timezone America/Chicago (UTC-5.0)
Plans Departing 1
Arriving 1
Stats Elevation 685 ft / 209 m (AMSL)
Location 32.083486° -97.097228°
Runways 1
Magnetic Variation 3.426° E
Sunrise 2018-05-25 11:26:47 UTC / 2018-05-25 06:26:47 Local
Sunset 2018-05-26 01:26:47 UTC / 2018-05-25 20:26:47 Local
Advertisement - Login to hide

Runways

ID Width Length Bearing (true) Bearing (mag) Surface Threshold Offset Overrun Length
16 60 ft / 18 m 4,011 ft / 1,222 m 164.88° 161.45° Asphalt 0 ft / 0 m 0 ft / 0 m
34 60 ft / 18 m 4,011 ft / 1,222 m 344.88° 341.45° Asphalt 0 ft / 0 m 0 ft / 0 m

Map

Weather


0- 5 10 15 20 25 30 35+ Temperature / ° C

Clouds and Precipitation
Forecast for 2018-05-25 18:00 UTC. Updated 2 hours ago

Ground ~20,000 ft ~40,000 ft Winds

METAR

KINJ 251915Z AUTO 12004KT 10SM SCT044 BKN085 32/22 A2994 RMK AO2 LTG DSNT NE T03150220

TAF

Not found

Frequencies

Recorded 118.72 MHz AWOS 3
Approach 135.20 MHz WACO APP/DEP
Unicom 122.90 MHz CTAF
Warning: Do not use this data for real-world aviation or navigation. No guarantee of current accuracy is given.